Hlavní strana
METAR-TAF:

METAR-TAF

Letiště :

Evenes, Norsko

zeměpisná šířka: 68-31N, zeměpisná délka: 016-41E, výška: 26 m

Aktuální stav počasí

Zpráva byla vytvořena před 18 minutami, v 13:50 UTC
Bezvětří
Teplota 1°C
Vlhkost vzduchu 51%
Tlak 1003 hPa
Viditelnost 10 km a více
Žádná oblačnost pod 1500 m, nevyskytují se cumulonimby.

METAR: ENEV 181350Z 00000KT CAVOK 01/M08 Q1003 RMK WIND 1400FT 03004KT

Čas: 15:08 (14:08 UTC)

Předpověď počasí

Zpráva byla vytvořena před 3 hodinami a 8 minutami, v 11:00 UTC
Předpověď platná od 18 v 12 UTC do 18 v 21 UTC
Východní vítr 8 kt
Viditelnost 10 km a více
Žádná oblačnost pod 1500 m, nevyskytují se cumulonimby.
Dočasný
od 18 v 12 UTC do 18 v 15 UTC
Východní vítr 18 kt

TAF: ENEV 181100Z 1812/1821 09008KT CAVOK TEMPO 1812/1815 10018KT

Stav a předpovědi počasí z více než 4 000 letišť (zprávy METAR a TAF).

Červené a žluté tečky na mapě představují dostupné meteorologické stanice.

Když kurzor umístíte na tečku, zobrazí se název stanice.

Pak kliknutím zobrazíte stav a předpověď počasí.

Chcete-li změnit mapu, kliknutím na zelené tlačítko se znaménkem +mapu přiblížíte, kliknutím na zelené tlačítko se znaménkem – mapu oddálíte a kliknutím na zelené šipky přejdete na sousední mapy.


METAR-TAF: